Time;durP1;ratioP1;P1;durP2;ratioP2;P2;SDS_P1;SDS_P2;PMS_P1;PMS_P2;Temp;Humidity;BMP_temperature;BMP_pressure;BME280_temperature;BME280_humidity;BME280_pressure;Samples;Min_cycle;Max_cycle;Signal;HPM_P1;HPM_P2
2021/12/05 00:19:42;;;;;;;1.95;1.20;;;5.70;76.80;;;;;;4997267;28;20677;-79
2021/12/05 00:22:16;;;;;;;1.83;1.40;;;5.80;77.50;;;;;;4997984;28;20208;-78
2021/12/05 00:24:47;;;;;;;3.08;1.70;;;5.80;76.30;;;;;;4997798;28;20219;-78
2021/12/05 00:27:18;;;;;;;2.53;1.20;;;5.80;75.40;;;;;;5002684;28;20772;-78
2021/12/05 00:29:55;;;;;;;5.95;1.65;;;5.80;75.20;;;;;;4998687;28;20213;-76
2021/12/05 00:32:29;;;;;;;2.90;1.42;;;5.80;75.80;;;;;;4997467;28;20208;-77
2021/12/05 00:49:31;;;;;;;3.20;1.80;;;5.80;73.30;;;;;;5007939;28;20211;-77
2021/12/05 00:52:25;;;;;;;2.90;1.50;;;5.80;73.60;;;;;;4999016;28;20287;-77
2021/12/05 00:55:27;;;;;;;2.10;1.30;;;5.80;73.70;;;;;;5002599;28;20216;-77
2021/12/05 00:58:27;;;;;;;1.75;1.50;;;5.80;73.70;;;;;;5010744;28;20239;-77
2021/12/05 01:06:44;;;;;;;3.75;1.38;;;5.80;73.70;;;;;;5002580;28;20211;-77
2021/12/05 01:14:53;;;;;;;1.80;1.20;;;5.70;73.60;;;;;;4962333;28;20334;-77
2021/12/05 01:17:29;;;;;;;2.80;1.30;;;5.70;73.60;;;;;;4994992;28;20735;-78
2021/12/05 01:19:56;;;;;;;4.00;1.55;;;5.60;74.00;;;;;;4995097;28;20243;-77
2021/12/05 01:22:24;;;;;;;4.32;2.00;;;5.50;75.40;;;;;;4995413;28;20218;-77
2021/12/05 01:25:01;;;;;;;5.88;1.75;;;5.50;76.90;;;;;;5003266;28;20612;-77
2021/12/05 01:27:40;;;;;;;6.07;1.48;;;5.50;76.50;;;;;;5002753;28;20223;-77
2021/12/05 01:30:15;;;;;;;3.28;1.70;;;5.50;77.20;;;;;;5002905;28;20263;-77
2021/12/05 01:32:59;;;;;;;4.10;1.20;;;5.50;76.80;;;;;;4996319;28;20263;-77
2021/12/05 01:35:41;;;;;;;2.50;1.30;;;5.50;77.30;;;;;;4995338;28;20231;-78
2021/12/05 01:38:13;;;;;;;5.82;2.10;;;5.50;77.50;;;;;;5001853;28;20213;-77
2021/12/05 01:40:59;;;;;;;1.80;1.60;;;5.50;78.50;;;;;;4997266;28;20228;-78
2021/12/05 01:52:16;;;;;;;5.32;1.88;;;5.10;85.60;;;;;;4981810;28;20274;-76
2021/12/05 02:01:01;;;;;;;4.10;1.67;;;5.10;88.60;;;;;;4924001;28;20704;-77
2021/12/05 02:09:24;;;;;;;5.63;2.22;;;5.00;91.30;;;;;;4996894;28;20278;-78
2021/12/05 02:12:16;;;;;;;2.58;1.98;;;5.00;91.60;;;;;;4998211;28;20315;-77
2021/12/05 02:31:37;;;;;;;5.32;2.75;;;5.10;92.70;;;;;;5012146;28;20295;-77
2021/12/05 02:34:17;;;;;;;3.60;1.75;;;5.10;92.30;;;;;;4995529;28;20216;-76
2021/12/05 02:37:00;;;;;;;4.55;1.73;;;5.10;91.80;;;;;;4995432;28;20208;-76
2021/12/05 02:42:14;;;;;;;5.45;1.60;;;5.10;91.80;;;;;;4994995;28;20227;-77
2021/12/05 02:44:43;;;;;;;4.43;1.30;;;5.10;92.00;;;;;;4995360;28;20212;-78
2021/12/05 02:47:14;;;;;;;3.47;2.20;;;5.20;91.40;;;;;;4998328;28;20208;-77
2021/12/05 02:49:43;;;;;;;2.53;1.70;;;5.20;91.50;;;;;;5005072;28;20208;-78
2021/12/05 02:52:17;;;;;;;3.03;1.23;;;5.20;91.00;;;;;;5003181;28;20287;-77
2021/12/05 02:54:51;;;;;;;4.80;1.65;;;5.20;90.30;;;;;;4997714;28;20714;-77
2021/12/05 02:57:24;;;;;;;7.38;1.73;;;5.20;90.00;;;;;;4994879;28;20529;-78
2021/12/05 02:59:54;;;;;;;5.00;1.73;;;5.20;89.90;;;;;;4994900;28;20208;-77
2021/12/05 03:02:27;;;;;;;2.50;1.73;;;5.10;89.90;;;;;;4995156;28;20231;-77
2021/12/05 03:04:58;;;;;;;3.10;1.48;;;5.00;89.70;;;;;;4995620;28;20488;-77
2021/12/05 03:07:37;;;;;;;2.97;1.45;;;5.00;89.60;;;;;;4995805;28;20239;-76
2021/12/05 03:10:05;;;;;;;2.95;1.30;;;5.10;89.60;;;;;;4994058;28;20228;-77
2021/12/05 03:12:34;;;;;;;3.70;1.10;;;5.00;89.30;;;;;;4996322;28;20624;-77
2021/12/05 03:15:04;;;;;;;4.28;1.52;;;5.00;89.60;;;;;;4995827;28;20282;-77
2021/12/05 03:17:31;;;;;;;3.03;1.33;;;5.00;88.00;;;;;;4995543;28;20271;-77
2021/12/05 03:19:58;;;;;;;3.78;1.38;;;5.00;87.80;;;;;;4994493;28;20232;-77
2021/12/05 03:22:26;;;;;;;3.03;1.15;;;5.00;87.30;;;;;;4994989;28;20243;-77
2021/12/05 03:24:53;;;;;;;3.85;1.40;;;5.00;87.40;;;;;;4996042;28;20218;-76
2021/12/05 03:27:20;;;;;;;4.68;1.20;;;5.00;87.50;;;;;;4998606;28;20251;-77
2021/12/05 03:29:47;;;;;;;6.72;1.27;;;5.00;87.80;;;;;;5001945;28;20204;-77
2021/12/05 03:32:14;;;;;;;5.00;1.42;;;5.00;87.10;;;;;;5000099;28;20209;-77
2021/12/05 03:34:41;;;;;;;3.22;1.45;;;5.00;87.50;;;;;;4995973;28;20255;-77
2021/12/05 03:37:10;;;;;;;4.63;1.60;;;5.00;88.40;;;;;;4995657;28;20676;-77
2021/12/05 03:39:38;;;;;;;2.25;1.83;;;5.00;88.70;;;;;;4995761;28;20574;-77
2021/12/05 03:42:08;;;;;;;3.88;1.52;;;5.00;88.80;;;;;;4998024;28;20220;-77
2021/12/05 03:44:37;;;;;;;2.97;1.60;;;5.10;89.10;;;;;;5002344;28;20223;-77
2021/12/05 03:47:06;;;;;;;4.07;2.03;;;5.10;88.50;;;;;;5000878;28;20214;-76
2021/12/05 03:49:34;;;;;;;2.20;1.10;;;5.00;87.50;;;;;;5002976;28;20298;-77
2021/12/05 03:52:05;;;;;;;7.10;1.35;;;5.00;88.00;;;;;;5001172;28;20324;-76
2021/12/05 03:54:32;;;;;;;2.22;1.38;;;5.00;87.90;;;;;;4999239;28;20208;-76
2021/12/05 03:57:02;;;;;;;2.60;1.10;;;5.00;89.50;;;;;;4997097;28;20242;-75
2021/12/05 03:59:29;;;;;;;4.15;1.85;;;5.00;90.10;;;;;;4997896;28;20212;-77
2021/12/05 04:01:57;;;;;;;2.55;1.40;;;5.00;90.10;;;;;;4997458;28;20258;-77
2021/12/05 04:04:25;;;;;;;2.85;1.73;;;5.00;89.60;;;;;;5000804;28;20213;-77
2021/12/05 04:06:52;;;;;;;1.75;1.45;;;4.80;89.80;;;;;;5001404;28;20287;-77
2021/12/05 04:09:20;;;;;;;3.25;1.40;;;4.80;90.70;;;;;;5003607;28;20208;-77
2021/12/05 04:11:57;;;;;;;2.28;1.10;;;4.70;90.30;;;;;;5001549;28;20232;-77
2021/12/05 04:14:27;;;;;;;3.58;1.30;;;4.60;90.80;;;;;;5004985;28;20193;-77
2021/12/05 04:16:54;;;;;;;3.10;1.45;;;4.60;91.40;;;;;;5007544;28;20228;-77
2021/12/05 04:19:22;;;;;;;6.80;1.83;;;4.60;91.50;;;;;;5007120;28;20212;-77
2021/12/05 04:21:49;;;;;;;2.05;1.30;;;4.60;92.00;;;;;;5005488;28;20232;-77
2021/12/05 04:24:17;;;;;;;2.25;1.38;;;4.60;92.50;;;;;;5004436;28;20245;-77
2021/12/05 04:26:44;;;;;;;3.95;1.48;;;4.70;92.40;;;;;;5004007;28;20215;-77
2021/12/05 04:29:11;;;;;;;1.35;1.10;;;4.70;92.50;;;;;;5008381;28;20204;-76
2021/12/05 04:31:41;;;;;;;4.63;1.42;;;4.70;91.60;;;;;;5003554;28;20236;-76
2021/12/05 04:34:08;;;;;;;1.48;1.38;;;4.70;91.50;;;;;;5010312;28;20209;-76
2021/12/05 04:36:36;;;;;;;1.42;1.00;;;4.70;91.50;;;;;;5012011;28;20288;-77
2021/12/05 04:39:04;;;;;;;2.05;1.10;;;4.70;91.50;;;;;;5002686;28;20291;-76
2021/12/05 04:41:31;;;;;;;3.15;1.10;;;4.70;91.00;;;;;;4998164;28;20240;-76
2021/12/05 04:44:00;;;;;;;1.30;0.90;;;4.70;90.50;;;;;;4997900;28;20231;-78
2021/12/05 04:46:27;;;;;;;4.18;1.83;;;4.60;90.30;;;;;;5001954;28;20220;-77
2021/12/05 04:48:57;;;;;;;1.50;0.80;;;4.70;90.70;;;;;;5008726;28;20280;-77
2021/12/05 04:51:27;;;;;;;5.35;1.02;;;4.70;90.60;;;;;;5005784;28;20232;-77
2021/12/05 04:53:55;;;;;;;1.33;1.23;;;4.80;89.40;;;;;;5005252;28;20219;-76
2021/12/05 04:56:23;;;;;;;1.15;0.70;;;4.80;87.30;;;;;;5009820;28;20228;-77
2021/12/05 04:58:50;;;;;;;0.95;0.85;;;4.90;86.30;;;;;;5006182;28;20232;-77
2021/12/05 05:01:17;;;;;;;2.70;1.15;;;4.90;85.40;;;;;;4997467;28;20267;-78
2021/12/05 05:03:44;;;;;;;4.15;1.25;;;4.90;83.80;;;;;;4995918;28;20257;-79
2021/12/05 05:06:14;;;;;;;5.55;1.73;;;4.90;83.50;;;;;;4995037;28;20556;-78
2021/12/05 05:08:41;;;;;;;2.85;1.10;;;4.90;83.80;;;;;;4995081;28;20208;-77
2021/12/05 05:11:13;;;;;;;2.90;1.08;;;4.90;83.30;;;;;;4994778;28;20233;-77
2021/12/05 05:13:41;;;;;;;4.18;1.20;;;4.90;82.90;;;;;;4995189;28;20205;-77
2021/12/05 05:16:09;;;;;;;3.67;1.10;;;4.80;82.80;;;;;;4994766;28;20244;-77
2021/12/05 05:18:42;;;;;;;1.02;0.95;;;4.90;83.20;;;;;;4994941;28;20319;-78
2021/12/05 05:21:16;;;;;;;3.20;1.08;;;4.90;82.70;;;;;;4995226;28;20228;-78
2021/12/05 05:24:02;;;;;;;2.78;0.90;;;4.90;82.00;;;;;;4994586;28;20291;-76
2021/12/05 05:40:41;;;;;;;2.78;1.13;;;4.90;81.40;;;;;;4994399;28;20239;-78
2021/12/05 05:43:23;;;;;;;3.58;0.95;;;4.90;81.30;;;;;;4994671;28;20657;-77
2021/12/05 05:46:03;;;;;;;4.43;1.25;;;4.90;81.40;;;;;;4994837;28;20784;-77
2021/12/05 05:48:37;;;;;;;3.30;1.40;;;4.80;81.30;;;;;;4994618;28;20304;-78
2021/12/05 05:51:06;;;;;;;2.17;1.30;;;4.70;82.40;;;;;;4994569;28;20233;-77
2021/12/05 05:53:33;;;;;;;3.53;1.10;;;4.60;83.00;;;;;;4994880;28;20234;-77
2021/12/05 05:56:02;;;;;;;5.30;1.25;;;4.60;83.90;;;;;;4994786;28;20239;-78
2021/12/05 05:58:39;;;;;;;1.75;1.00;;;4.50;84.60;;;;;;4995043;28;20251;-77
2021/12/05 06:01:14;;;;;;;4.70;1.25;;;4.50;85.10;;;;;;4994329;28;20338;-79
2021/12/05 06:03:41;;;;;;;3.10;1.17;;;4.50;85.30;;;;;;4994412;28;20208;-79
2021/12/05 06:06:11;;;;;;;3.40;1.05;;;4.50;86.30;;;;;;4994117;28;20205;-77
2021/12/05 06:08:40;;;;;;;2.70;1.00;;;4.60;86.50;;;;;;4994185;28;20212;-76
2021/12/05 06:11:10;;;;;;;1.80;0.90;;;4.70;86.00;;;;;;4994289;28;20251;-77
2021/12/05 06:13:38;;;;;;;3.00;1.27;;;4.70;85.30;;;;;;4994667;28;20583;-77
2021/12/05 06:16:06;;;;;;;1.80;0.90;;;4.70;85.20;;;;;;4994419;28;20235;-78
2021/12/05 06:18:33;;;;;;;2.50;1.30;;;4.80;84.70;;;;;;4994390;28;20212;-78
2021/12/05 06:21:00;;;;;;;3.97;1.20;;;4.80;83.80;;;;;;4993862;28;20315;-77
2021/12/05 06:23:27;;;;;;;3.75;1.10;;;4.80;83.60;;;;;;4994476;28;20278;-78
2021/12/05 06:25:55;;;;;;;4.35;1.10;;;4.80;83.00;;;;;;4995801;28;20267;-77
2021/12/05 06:28:30;;;;;;;4.25;0.90;;;4.80;81.90;;;;;;5004749;28;20577;-77
2021/12/05 06:31:03;;;;;;;2.63;1.00;;;4.80;81.50;;;;;;4998894;28;20294;-77
2021/12/05 06:42:05;;;;;;;4.28;1.10;;;4.90;81.30;;;;;;4995815;28;20220;-78
2021/12/05 06:47:22;;;;;;;5.13;1.52;;;4.90;81.30;;;;;;4995787;28;20210;-78
2021/12/05 06:49:49;;;;;;;3.25;1.58;;;4.90;81.40;;;;;;4995814;28;20208;-77
2021/12/05 06:52:17;;;;;;;1.85;1.35;;;4.90;81.30;;;;;;4996755;28;20665;-78
2021/12/05 06:54:44;;;;;;;1.42;0.90;;;4.90;81.30;;;;;;4994429;28;20287;-78
2021/12/05 06:57:11;;;;;;;1.92;1.15;;;4.80;81.20;;;;;;4994413;28;20633;-77
2021/12/05 06:59:43;;;;;;;8.00;1.50;;;4.80;81.20;;;;;;4995050;28;20216;-78
2021/12/05 07:02:10;;;;;;;2.65;1.10;;;4.70;81.50;;;;;;4995721;28;20216;-76
2021/12/05 07:07:24;;;;;;;3.28;1.20;;;4.70;81.70;;;;;;5000809;28;20243;-79
2021/12/05 07:09:52;;;;;;;2.13;1.00;;;4.70;81.20;;;;;;5001548;28;20266;-79
2021/12/05 07:12:52;;;;;;;6.20;1.10;;;4.60;81.10;;;;;;4997315;28;20648;-77
2021/12/05 07:15:30;;;;;;;4.90;1.80;;;4.40;81.70;;;;;;5000728;28;20216;-77
2021/12/05 07:20:53;;;;;;;2.85;1.45;;;4.20;83.80;;;;;;4998274;28;20303;-78
2021/12/05 07:23:34;;;;;;;2.33;1.10;;;4.10;84.80;;;;;;4999565;28;20232;-77
2021/12/05 07:26:10;;;;;;;4.55;1.20;;;4.00;85.40;;;;;;5005660;28;20676;-78
2021/12/05 07:42:22;;;;;;;3.45;1.42;;;4.40;85.00;;;;;;5010573;28;20195;-78
2021/12/05 07:44:49;;;;;;;1.10;1.00;;;4.40;85.00;;;;;;5007230;28;20212;-77
2021/12/05 07:47:19;;;;;;;5.50;1.20;;;4.60;83.70;;;;;;5005176;28;20585;-79
2021/12/05 07:49:47;;;;;;;2.10;1.50;;;4.70;82.10;;;;;;5005954;28;20189;-77
2021/12/05 07:52:18;;;;;;;3.35;1.48;;;4.80;81.20;;;;;;5006415;28;20208;-77
2021/12/05 07:54:51;;;;;;;1.95;1.08;;;4.90;81.30;;;;;;5005884;28;20239;-78
2021/12/05 07:57:22;;;;;;;6.38;1.40;;;5.00;79.80;;;;;;5008549;28;20216;-79
2021/12/05 08:00:02;;;;;;;3.03;1.50;;;5.10;79.00;;;;;;5012188;28;20645;-77
2021/12/05 08:16:16;;;;;;;2.97;1.60;;;5.70;73.60;;;;;;5005461;28;20698;-79
2021/12/05 08:18:44;;;;;;;2.03;1.63;;;5.70;73.00;;;;;;5004470;28;20220;-77
2021/12/05 08:21:13;;;;;;;2.83;1.58;;;5.70;71.70;;;;;;5004522;28;20296;-78
2021/12/05 08:23:40;;;;;;;2.60;1.90;;;5.80;70.90;;;;;;5005030;28;20204;-78
2021/12/05 08:26:09;;;;;;;2.80;1.55;;;5.80;70.80;;;;;;5003083;28;20312;-77
2021/12/05 08:28:57;;;;;;;1.83;1.52;;;5.80;71.50;;;;;;5008095;28;20239;-77
2021/12/05 08:31:34;;;;;;;8.48;2.03;;;5.90;70.80;;;;;;5003129;28;20232;-78
2021/12/05 08:34:18;;;;;;;2.58;1.63;;;5.90;70.10;;;;;;5000849;28;20246;-78
2021/12/05 08:40:12;;;;;;;1.98;1.40;;;6.00;69.50;;;;;;4998687;28;20575;-79
2021/12/05 09:27:31;;;;;;;2.15;1.20;;;5.70;72.40;;;;;;5005504;28;20200;-79
2021/12/05 09:30:26;;;;;;;2.50;1.15;;;5.60;75.90;;;;;;5004587;28;20224;-78
2021/12/05 09:38:51;;;;;;;3.92;0.98;;;5.10;82.90;;;;;;5001676;28;20211;-77
2021/12/05 10:06:48;;;;;;;1.80;0.95;;;5.60;92.30;;;;;;5000552;28;20724;-76
2021/12/05 10:09:33;;;;;;;2.28;0.93;;;5.60;91.40;;;;;;5000225;28;20220;-78
2021/12/05 10:12:18;;;;;;;1.70;0.90;;;5.60;90.60;;;;;;4999421;28;20287;-78
2021/12/05 10:14:58;;;;;;;1.83;1.27;;;5.60;90.30;;;;;;4999627;28;20205;-77
2021/12/05 10:17:45;;;;;;;2.25;1.00;;;5.70;90.10;;;;;;5000058;28;20366;-77
2021/12/05 10:26:39;;;;;;;1.17;1.10;;;5.90;85.50;;;;;;5000333;28;20312;-77
2021/12/05 10:37:47;;;;;;;2.42;1.95;;;6.00;83.20;;;;;;4999333;28;20668;-77
2021/12/05 10:40:20;;;;;;;3.25;1.75;;;6.00;83.30;;;;;;4999932;28;20247;-76
2021/12/05 10:42:50;;;;;;;2.63;2.03;;;6.00;82.60;;;;;;4999586;28;20319;-79
2021/12/05 10:45:34;;;;;;;1.70;1.60;;;6.10;83.80;;;;;;5001098;28;20219;-78
2021/12/05 10:48:09;;;;;;;2.92;1.50;;;6.30;83.50;;;;;;5003727;28;20184;-78
2021/12/05 10:50:40;;;;;;;2.97;1.70;;;6.40;83.10;;;;;;5010623;28;20358;-78
2021/12/05 10:53:28;;;;;;;5.18;1.75;;;6.60;81.10;;;;;;5002581;28;20291;-78
2021/12/05 10:56:06;;;;;;;5.25;2.47;;;6.80;79.70;;;;;;5002571;28;20209;-77
2021/12/05 10:58:37;;;;;;;2.97;2.00;;;6.80;78.80;;;;;;5000143;28;20212;-78
2021/12/05 11:01:20;;;;;;;1.40;1.30;;;6.80;75.50;;;;;;5000893;28;20278;-78
2021/12/05 11:03:51;;;;;;;2.22;1.55;;;6.90;74.60;;;;;;5010720;28;20204;-77
2021/12/05 11:06:38;;;;;;;1.85;1.70;;;7.00;74.70;;;;;;5004842;28;20209;-77
2021/12/05 11:09:08;;;;;;;3.55;1.52;;;7.10;74.80;;;;;;5008319;28;20239;-78
2021/12/05 11:11:37;;;;;;;2.55;1.45;;;7.40;75.00;;;;;;5004700;28;20233;-78
2021/12/05 11:14:10;;;;;;;2.05;1.30;;;7.40;72.70;;;;;;5001269;28;20243;-78
2021/12/05 11:16:44;;;;;;;4.22;1.40;;;7.40;71.30;;;;;;5002840;28;20216;-76
2021/12/05 11:19:25;;;;;;;3.40;1.70;;;7.40;71.60;;;;;;5006343;28;20345;-77
2021/12/05 11:21:56;;;;;;;3.92;1.88;;;7.50;71.10;;;;;;5007861;28;20226;-78
2021/12/05 11:24:27;;;;;;;1.67;1.50;;;7.40;70.40;;;;;;5001337;28;20193;-76
2021/12/05 11:27:28;;;;;;;3.50;1.33;;;7.40;71.20;;;;;;5000962;28;20299;-77
2021/12/05 11:30:03;;;;;;;2.15;1.42;;;7.10;72.40;;;;;;4961552;29;20241;-77
2021/12/05 11:32:37;;;;;;;1.70;1.30;;;7.00;74.80;;;;;;4962320;29;20229;-77
2021/12/05 11:35:25;;;;;;;1.58;1.00;;;6.80;74.80;;;;;;4962563;29;20256;-77
2021/12/05 11:38:10;;;;;;;1.50;1.23;;;6.60;77.00;;;;;;4961841;29;20229;-76
2021/12/05 11:40:51;;;;;;;1.67;1.48;;;6.50;77.00;;;;;;4956842;29;20272;-76
2021/12/05 11:43:21;;;;;;;4.00;1.10;;;6.40;78.30;;;;;;4962291;29;20419;-79
2021/12/05 11:45:56;;;;;;;5.00;1.13;;;6.40;78.20;;;;;;4964812;29;20213;-76
2021/12/05 11:48:26;;;;;;;1.85;0.88;;;6.40;80.20;;;;;;4958090;29;20701;-77
2021/12/05 11:50:55;;;;;;;2.50;0.80;;;6.50;79.40;;;;;;4960282;28;20234;-77
2021/12/05 11:53:41;;;;;;;2.28;1.05;;;6.50;77.20;;;;;;4958112;29;20297;-77
2021/12/05 11:56:09;;;;;;;1.95;0.90;;;6.50;76.10;;;;;;4957790;29;20472;-78
2021/12/05 11:58:36;;;;;;;2.38;1.25;;;6.60;74.40;;;;;;4958652;29;20317;-76
2021/12/05 12:01:10;;;;;;;4.75;1.75;;;6.50;74.30;;;;;;4984478;28;20727;-78
2021/12/05 12:03:39;;;;;;;5.45;1.90;;;6.50;74.30;;;;;;5009358;28;20204;-79
2021/12/05 12:06:08;;;;;;;3.00;1.10;;;6.40;75.00;;;;;;5011133;28;20204;-77
2021/12/05 12:08:35;;;;;;;2.50;1.13;;;6.30;75.40;;;;;;5010252;28;20300;-77
2021/12/05 12:11:02;;;;;;;4.15;1.42;;;6.30;77.50;;;;;;5010619;28;20271;-77
2021/12/05 12:13:34;;;;;;;3.05;1.35;;;6.30;79.00;;;;;;5008465;28;20255;-78
2021/12/05 12:16:06;;;;;;;2.88;0.80;;;6.30;79.00;;;;;;5008327;28;20291;-78
2021/12/05 12:18:38;;;;;;;0.90;0.63;;;6.30;78.40;;;;;;5009190;28;20299;-79
2021/12/05 12:21:11;;;;;;;3.47;1.88;;;6.30;78.50;;;;;;5009344;28;20233;-77
2021/12/05 12:23:39;;;;;;;2.60;1.75;;;6.10;76.60;;;;;;5010088;28;20591;-78
2021/12/05 12:26:08;;;;;;;2.20;1.13;;;6.00;77.00;;;;;;5013758;28;20365;-78
2021/12/05 12:28:36;;;;;;;1.17;0.80;;;6.00;78.10;;;;;;5018940;28;20219;-77
2021/12/05 12:31:07;;;;;;;2.58;1.25;;;6.00;77.20;;;;;;5018979;28;20268;-77
2021/12/05 12:33:37;;;;;;;2.42;1.70;;;5.90;78.00;;;;;;5019534;28;20261;-79
2021/12/05 12:36:06;;;;;;;1.42;0.98;;;6.00;78.80;;;;;;5018256;28;20208;-77
2021/12/05 12:38:40;;;;;;;1.65;0.93;;;6.00;78.50;;;;;;5015756;28;20328;-77
2021/12/05 12:41:14;;;;;;;5.63;1.58;;;6.00;78.20;;;;;;5011959;28;20236;-77
2021/12/05 12:43:45;;;;;;;3.95;1.42;;;6.00;78.40;;;;;;5012310;28;20279;-77
2021/12/05 12:46:28;;;;;;;4.15;1.70;;;6.00;78.10;;;;;;5010398;28;20219;-78
2021/12/05 12:48:59;;;;;;;2.65;1.67;;;5.90;79.30;;;;;;5006728;28;20193;-77
2021/12/05 12:51:35;;;;;;;5.13;1.27;;;5.90;80.90;;;;;;5002975;28;20243;-77
2021/12/05 12:54:08;;;;;;;1.33;1.20;;;5.90;81.80;;;;;;5007536;28;20219;-78
2021/12/05 12:56:35;;;;;;;3.75;1.50;;;5.90;81.30;;;;;;5002270;28;20228;-77
2021/12/05 12:59:06;;;;;;;4.38;1.75;;;5.90;81.30;;;;;;5000465;28;20230;-77
2021/12/05 13:02:02;;;;;;;1.70;1.40;;;5.90;82.20;;;;;;5001115;28;20236;-78
2021/12/05 13:05:00;;;;;;;5.25;1.60;;;5.90;82.20;;;;;;5001173;28;20216;-77
2021/12/05 13:10:27;;;;;;;1.85;1.65;;;6.00;82.30;;;;;;5001357;28;20304;-77
2021/12/05 13:12:59;;;;;;;1.50;1.35;;;5.90;82.20;;;;;;4999677;28;20212;-78
2021/12/05 13:15:37;;;;;;;2.80;2.00;;;6.00;82.40;;;;;;4999932;28;20215;-78
2021/12/05 13:18:18;;;;;;;1.88;1.70;;;6.00;82.30;;;;;;4998905;28;20228;-77
2021/12/05 13:20:52;;;;;;;4.32;1.60;;;6.10;82.30;;;;;;4999926;28;20228;-77
2021/12/05 13:23:22;;;;;;;2.38;1.88;;;6.20;81.80;;;;;;5006101;28;20216;-77
2021/12/05 13:26:28;;;;;;;3.38;1.70;;;6.20;79.30;;;;;;5005177;28;20602;-77
2021/12/05 13:28:59;;;;;;;2.22;2.03;;;6.30;78.20;;;;;;5008657;28;20208;-77
2021/12/05 13:31:38;;;;;;;2.40;1.48;;;6.30;77.70;;;;;;5012022;28;20287;-77
2021/12/05 13:34:43;;;;;;;2.67;2.15;;;6.40;77.60;;;;;;5011524;28;20197;-78
2021/12/05 13:37:42;;;;;;;7.47;2.25;;;6.50;76.80;;;;;;5005767;28;20239;-79
2021/12/05 13:40:21;;;;;;;3.45;1.40;;;6.40;74.30;;;;;;5013974;28;20228;-78
2021/12/05 13:42:52;;;;;;;2.67;1.40;;;6.40;74.20;;;;;;5004613;28;20247;-78
2021/12/05 13:45:31;;;;;;;1.38;1.10;;;6.30;74.10;;;;;;5003943;28;20201;-79
2021/12/05 13:48:13;;;;;;;2.03;1.50;;;6.20;71.80;;;;;;5002493;28;20247;-78
2021/12/05 13:50:46;;;;;;;1.98;1.10;;;6.20;71.70;;;;;;5013342;28;20251;-79
2021/12/05 13:53:34;;;;;;;1.63;1.20;;;6.10;70.30;;;;;;5013424;28;20213;-78
2021/12/05 13:56:13;;;;;;;1.83;1.17;;;6.10;71.30;;;;;;5015881;28;20185;-79
2021/12/05 13:58:45;;;;;;;2.38;1.20;;;6.10;71.00;;;;;;5009705;28;20232;-78
2021/12/05 14:01:17;;;;;;;1.52;1.40;;;6.10;70.70;;;;;;5005377;28;20240;-79
2021/12/05 14:03:52;;;;;;;2.38;1.20;;;6.00;70.80;;;;;;5005231;28;20263;-77
2021/12/05 14:06:41;;;;;;;2.45;1.33;;;6.00;70.60;;;;;;5007013;28;20199;-78
2021/12/05 14:09:15;;;;;;;1.92;1.15;;;6.00;71.30;;;;;;5007052;28;20220;-78
2021/12/05 14:11:50;;;;;;;1.45;1.00;;;6.20;70.70;;;;;;5008260;28;20263;-78
2021/12/05 14:14:25;;;;;;;1.45;1.30;;;6.30;69.80;;;;;;5013855;28;20196;-78
2021/12/05 14:17:01;;;;;;;2.05;1.42;;;6.50;69.40;;;;;;4999904;28;20204;-79
2021/12/05 14:19:41;;;;;;;1.73;1.20;;;6.70;68.50;;;;;;5018097;28;20240;-77
2021/12/05 14:22:12;;;;;;;2.15;1.17;;;6.90;67.20;;;;;;5018477;28;20200;-77
2021/12/05 14:24:43;;;;;;;3.45;1.38;;;6.90;66.00;;;;;;5016812;28;20200;-77
2021/12/05 14:27:13;;;;;;;1.60;1.30;;;7.00;66.00;;;;;;5017044;28;20287;-77
2021/12/05 14:29:48;;;;;;;1.83;1.20;;;6.90;65.90;;;;;;5016828;28;20208;-77
2021/12/05 14:32:23;;;;;;;2.85;1.23;;;6.80;65.90;;;;;;5016285;28;20258;-80
2021/12/05 14:34:52;;;;;;;1.30;1.20;;;6.70;65.70;;;;;;5016221;28;20204;-79
2021/12/05 14:37:24;;;;;;;2.88;1.25;;;6.60;65.60;;;;;;5015561;28;20195;-76
2021/12/05 14:39:59;;;;;;;1.83;1.15;;;6.50;66.30;;;;;;4997087;28;20211;-77
2021/12/05 14:42:30;;;;;;;2.47;1.20;;;6.50;67.50;;;;;;5015047;28;20208;-79
2021/12/05 14:45:00;;;;;;;1.58;1.00;;;6.40;67.40;;;;;;5013316;28;20219;-80
2021/12/05 14:47:33;;;;;;;2.45;1.52;;;6.40;67.60;;;;;;5014098;28;20296;-78
2021/12/05 14:50:09;;;;;;;3.25;1.40;;;6.30;67.90;;;;;;5016114;28;20554;-78
2021/12/05 14:52:39;;;;;;;2.15;1.00;;;6.30;68.30;;;;;;5015639;28;20172;-78
2021/12/05 14:55:13;;;;;;;1.42;1.17;;;6.30;68.80;;;;;;5016294;28;20619;-79
2021/12/05 14:57:43;;;;;;;6.18;1.50;;;6.20;69.50;;;;;;5013434;28;20240;-77
2021/12/05 15:00:15;;;;;;;2.10;1.25;;;6.00;69.70;;;;;;5015461;28;20222;-77
2021/12/05 15:02:51;;;;;;;2.53;1.30;;;6.00;70.40;;;;;;5016780;28;20251;-78
2021/12/05 15:05:22;;;;;;;1.05;0.93;;;5.90;70.90;;;;;;5016309;28;20234;-77
2021/12/05 15:08:11;;;;;;;2.75;1.10;;;5.90;71.50;;;;;;5015060;28;20247;-78
2021/12/05 15:10:39;;;;;;;1.42;1.33;;;5.90;72.10;;;;;;5016379;28;20234;-80
2021/12/05 15:13:10;;;;;;;2.08;1.20;;;5.70;72.40;;;;;;5016985;28;20209;-78
2021/12/05 15:15:43;;;;;;;1.17;1.05;;;5.60;73.40;;;;;;5016686;28;20293;-79
2021/12/05 15:18:23;;;;;;;2.85;1.15;;;5.60;73.50;;;;;;5017592;28;20255;-79
2021/12/05 15:20:50;;;;;;;2.53;1.40;;;5.50;73.40;;;;;;5016904;28;20232;-82
2021/12/05 15:23:18;;;;;;;5.15;1.27;;;5.50;74.40;;;;;;5015230;28;20209;-81
2021/12/05 15:25:46;;;;;;;2.75;1.85;;;5.40;75.20;;;;;;5016223;28;20205;-80
2021/12/05 15:28:15;;;;;;;1.95;1.20;;;5.40;76.00;;;;;;5016509;28;20203;-76
2021/12/05 15:30:51;;;;;;;1.83;1.70;;;5.40;76.30;;;;;;5017224;28;20228;-77
2021/12/05 15:33:22;;;;;;;4.63;1.35;;;5.30;76.50;;;;;;5014349;28;20200;-78
2021/12/05 15:35:59;;;;;;;3.05;1.60;;;5.20;77.20;;;;;;5017062;28;20215;-79
2021/12/05 15:38:29;;;;;;;1.83;1.30;;;5.20;77.60;;;;;;5019800;28;20215;-77
2021/12/05 15:40:59;;;;;;;3.35;1.65;;;5.10;78.10;;;;;;5013061;28;20235;-78
2021/12/05 15:43:28;;;;;;;2.45;1.73;;;5.00;78.80;;;;;;5013050;28;20189;-78
2021/12/05 15:45:58;;;;;;;2.72;1.50;;;5.00;79.60;;;;;;5014614;28;20212;-77
2021/12/05 15:48:29;;;;;;;3.75;1.40;;;5.00;79.60;;;;;;5016615;28;20208;-78
2021/12/05 15:50:57;;;;;;;3.60;2.20;;;5.00;79.70;;;;;;5015480;28;20231;-79
2021/12/05 15:53:26;;;;;;;2.80;2.45;;;5.00;80.00;;;;;;5013521;28;20208;-79
2021/12/05 15:55:58;;;;;;;5.72;2.72;;;4.90;80.20;;;;;;5007996;28;20268;-77
2021/12/05 15:58:31;;;;;;;3.42;2.40;;;4.90;81.30;;;;;;5009115;28;20217;-78
2021/12/05 16:01:01;;;;;;;4.43;2.60;;;4.90;81.50;;;;;;5013072;28;20239;-78
2021/12/05 16:03:40;;;;;;;2.10;1.90;;;4.90;82.80;;;;;;5007627;28;20209;-80
2021/12/05 16:06:08;;;;;;;3.08;2.17;;;5.00;83.40;;;;;;5009109;28;20247;-78
2021/12/05 16:08:35;;;;;;;4.57;2.90;;;5.00;83.90;;;;;;5010937;28;20205;-77
2021/12/05 16:11:10;;;;;;;5.15;3.53;;;5.00;84.20;;;;;;5014810;28;20243;-76
2021/12/05 16:13:41;;;;;;;5.05;3.13;;;5.00;85.50;;;;;;5018579;28;20192;-77
2021/12/05 16:16:11;;;;;;;5.72;2.95;;;5.00;85.60;;;;;;5018466;28;20187;-77
2021/12/05 16:18:41;;;;;;;6.07;3.60;;;5.00;85.50;;;;;;5018429;28;20287;-77
2021/12/05 16:21:16;;;;;;;5.60;3.97;;;5.00;85.50;;;;;;5014620;28;20671;-78
2021/12/05 16:23:46;;;;;;;5.85;4.40;;;5.00;85.50;;;;;;5015445;28;20246;-78
2021/12/05 16:26:16;;;;;;;6.35;3.40;;;5.00;86.20;;;;;;5017059;28;20266;-79
2021/12/05 16:28:47;;;;;;;4.45;3.58;;;5.10;86.00;;;;;;5018192;28;20193;-79
2021/12/05 16:31:19;;;;;;;5.40;4.28;;;5.10;85.90;;;;;;5014809;28;20300;-80
2021/12/05 16:33:50;;;;;;;5.45;3.67;;;5.10;85.60;;;;;;5015662;28;20200;-79
2021/12/05 16:36:18;;;;;;;8.13;4.80;;;5.20;85.40;;;;;;5006802;28;20208;-77
2021/12/05 16:38:48;;;;;;;4.95;4.25;;;5.30;85.20;;;;;;5007940;28;20259;-77
2021/12/05 16:41:21;;;;;;;6.93;4.50;;;5.30;83.80;;;;;;5007257;28;20299;-78
2021/12/05 16:43:54;;;;;;;18.95;11.20;;;5.30;83.20;;;;;;5000934;28;20203;-78
2021/12/05 16:46:24;;;;;;;9.60;7.35;;;5.20;83.70;;;;;;5000506;28;20295;-78
2021/12/05 16:48:53;;;;;;;10.05;6.50;;;5.30;84.80;;;;;;5000788;28;20232;-78
2021/12/05 16:51:24;;;;;;;11.48;6.03;;;5.30;84.40;;;;;;4999640;28;20287;-77
2021/12/05 16:53:58;;;;;;;12.55;5.63;;;5.20;84.80;;;;;;5001335;28;20189;-79
2021/12/05 16:56:40;;;;;;;12.27;5.65;;;5.20;85.70;;;;;;5000828;28;20215;-78
2021/12/05 16:59:10;;;;;;;6.53;5.38;;;5.10;85.40;;;;;;5000110;28;20255;-78
2021/12/05 17:01:37;;;;;;;6.45;5.35;;;5.20;85.70;;;;;;5042657;23;20258;-78
2021/12/05 17:04:06;;;;;;;7.25;5.18;;;5.20;86.40;;;;;;5034874;28;20204;-78
2021/12/05 17:06:52;;;;;;;7.68;5.55;;;5.20;85.80;;;;;;5035926;28;20212;-79
2021/12/05 17:09:20;;;;;;;8.32;5.47;;;5.20;85.70;;;;;;5036301;28;20242;-79
2021/12/05 17:11:47;;;;;;;6.50;5.32;;;5.30;85.80;;;;;;5032478;28;20307;-77
2021/12/05 17:14:24;;;;;;;7.75;5.10;;;5.30;85.80;;;;;;5025744;28;20238;-77
2021/12/05 17:16:51;;;;;;;8.63;5.10;;;5.30;85.80;;;;;;5026129;28;20214;-78
2021/12/05 17:19:27;;;;;;;10.48;7.15;;;5.30;85.80;;;;;;5031894;28;20250;-79
2021/12/05 17:21:55;;;;;;;7.63;5.70;;;5.20;85.80;;;;;;5034271;28;20237;-78
2021/12/05 17:24:25;;;;;;;8.60;5.57;;;5.10;85.70;;;;;;5034902;28;20192;-78
2021/12/05 17:26:55;;;;;;;8.65;5.63;;;5.10;85.80;;;;;;5035842;28;20254;-79
2021/12/05 17:29:24;;;;;;;8.35;5.45;;;5.20;86.50;;;;;;5035883;28;20200;-78